createdAt,value
2023-04-15T00:09:54.272Z,5.5
2023-04-15T00:29:57.454Z,5.3
2023-04-15T00:49:59.999Z,5
2023-04-15T01:10:02.423Z,4.8
2023-04-15T01:30:05.581Z,4.4
2023-04-15T01:50:08.091Z,4.3
2023-04-15T02:10:11.136Z,4.3
2023-04-15T02:30:14.528Z,4.4
2023-04-15T02:40:16.533Z,4.3
2023-04-15T02:50:17.755Z,4.2
2023-04-15T03:00:19.607Z,4.1
2023-04-15T03:10:20.991Z,4
2023-04-15T03:20:22.145Z,3.8
2023-04-15T03:30:23.959Z,3.6
2023-04-15T04:10:28.905Z,3.3
2023-04-15T04:40:33.843Z,3.3
2023-04-15T04:50:35.019Z,3.2
2023-04-15T05:00:36.749Z,3.2
2023-04-15T05:10:38.276Z,3.3
2023-04-15T05:20:39.589Z,3.2
2023-04-15T05:30:40.754Z,3.4
2023-04-15T05:40:42.279Z,3.5
2023-04-15T06:00:45.371Z,3.7
2023-04-15T06:20:47.736Z,4.3
2023-04-15T06:40:50.924Z,4.9
2023-04-15T06:50:52.971Z,5.2
2023-04-15T07:00:54.788Z,5.6
2023-04-15T07:20:58.680Z,6.4
2023-04-15T07:41:01.623Z,7.5
2023-04-15T07:51:03.476Z,7.7
2023-04-15T08:01:04.796Z,8.2
2023-04-15T08:11:06.481Z,8.5
2023-04-15T08:21:08.321Z,8.6
2023-04-15T08:31:10.068Z,8.5
2023-04-15T08:41:12.096Z,8.5
2023-04-15T08:51:13.533Z,8.4
2023-04-15T09:01:15.329Z,8.6
2023-04-15T09:11:17.394Z,8.4
2023-04-15T09:21:18.351Z,8.3
2023-04-15T09:31:19.567Z,8.5
2023-04-15T09:41:21.049Z,8.6
2023-04-15T09:51:22.646Z,8.6
2023-04-15T10:01:24.255Z,8.6
2023-04-15T10:11:25.441Z,9
2023-04-15T10:21:26.589Z,8.8
2023-04-15T10:31:27.707Z,8.8
2023-04-15T10:41:29.549Z,9
2023-04-15T10:51:30.626Z,8.8
2023-04-15T11:01:32.524Z,8.7
2023-04-15T11:11:33.699Z,8.9
2023-04-15T11:21:35.161Z,9
2023-04-15T11:31:36.743Z,8.9
2023-04-15T11:41:37.965Z,8.9
2023-04-15T11:51:39.688Z,9
2023-04-15T12:01:41.451Z,9.2
2023-04-15T12:11:43.084Z,9.2
2023-04-15T12:21:44.378Z,9.4
2023-04-15T12:31:45.882Z,9.3
2023-04-15T12:41:47.917Z,9.3
2023-04-15T12:51:49.640Z,9.5
2023-04-15T13:01:51.164Z,9.7
2023-04-15T13:21:54.170Z,9.4
2023-04-15T13:31:55.340Z,9.2
2023-04-15T13:41:56.934Z,9.2
2023-04-15T13:51:58.953Z,9.2
2023-04-15T14:02:00.672Z,9.1
2023-04-15T14:12:02.303Z,9
2023-04-15T14:22:03.825Z,8.8
2023-04-15T14:32:11.725Z,8.6
2023-04-15T14:42:06.789Z,8.5
2023-04-15T14:52:08.135Z,8.4
2023-04-15T15:02:10.602Z,8.4
2023-04-15T15:12:11.336Z,8.4
2023-04-15T15:22:12.939Z,8.4
2023-04-15T15:32:14.133Z,8.3
2023-04-15T15:42:15.637Z,8
2023-04-15T15:52:16.930Z,8
2023-04-15T16:02:18.457Z,7.9
2023-04-15T16:12:20.400Z,7.8
2023-04-15T16:22:22.311Z,7.7
2023-04-15T16:32:23.889Z,7.6
2023-04-15T16:42:25.722Z,7.5
2023-04-15T16:52:26.961Z,7.5
2023-04-15T17:02:28.477Z,7.5
2023-04-15T17:22:31.214Z,7.5
2023-04-15T17:23:14.945Z,7.5
2023-04-15T17:32:40.070Z,7.5
2023-04-15T17:42:41.367Z,7.5
2023-04-15T17:52:42.876Z,7.5
2023-04-15T18:02:44.696Z,7.4
2023-04-15T18:12:45.810Z,7.4
2023-04-15T18:22:47.017Z,7.3
2023-04-15T18:32:48.757Z,7.3
2023-04-15T18:42:49.878Z,7.3
2023-04-15T19:02:52.633Z,7.3
2023-04-15T19:22:55.452Z,7.3
2023-04-15T20:23:05.044Z,7.2
2023-04-15T20:33:06.539Z,7.2
2023-04-15T20:43:08.150Z,7.1
2023-04-15T20:53:09.995Z,7.1
2023-04-15T21:03:12.214Z,7.1
2023-04-15T21:13:13.554Z,7.1
2023-04-15T21:23:14.641Z,7.1
2023-04-15T21:33:16.406Z,7.1
2023-04-15T21:43:17.603Z,7.1
2023-04-15T21:53:19.685Z,7.1
2023-04-15T22:03:21.491Z,7.1
2023-04-15T22:23:24.656Z,7.1
2023-04-15T22:43:27.981Z,7.1
2023-04-15T23:03:31.273Z,7
2023-04-15T23:13:32.554Z,7.1
2023-04-15T23:23:34.496Z,7.1
2023-04-15T23:33:36.297Z,7
2023-04-15T23:43:37.845Z,7
2023-04-15T23:53:39.646Z,7.1
